createdAt,value
2018-07-22T00:00:10.702Z,23.73
2018-07-22T00:00:51.191Z,23.73
2018-07-22T00:01:31.651Z,23.7
2018-07-22T00:02:12.175Z,23.72
2018-07-22T00:02:52.692Z,23.75
2018-07-22T00:03:33.177Z,23.73
2018-07-22T00:04:13.616Z,23.76
2018-07-22T00:04:54.142Z,23.76
2018-07-22T00:05:34.643Z,23.84
2018-07-22T00:06:15.126Z,23.78
2018-07-22T00:06:55.604Z,23.76
2018-07-22T00:07:36.109Z,23.76
2018-07-22T00:08:16.582Z,23.78
2018-07-22T00:08:57.091Z,23.7
2018-07-22T00:09:37.589Z,23.73
2018-07-22T00:10:18.148Z,23.73
2018-07-22T00:10:58.592Z,23.7
2018-07-22T00:11:39.082Z,23.72
2018-07-22T00:12:19.578Z,23.65
2018-07-22T00:13:00.079Z,23.63
2018-07-22T00:13:40.607Z,23.7
2018-07-22T00:14:21.133Z,23.72
2018-07-22T00:15:01.658Z,23.72
2018-07-22T00:15:42.204Z,23.73
2018-07-22T00:16:22.717Z,23.72
2018-07-22T00:17:03.237Z,23.73
2018-07-22T00:17:43.742Z,23.69
2018-07-22T00:18:24.277Z,23.75
2018-07-22T00:19:04.810Z,23.57
2018-07-22T00:19:45.329Z,23.63
2018-07-22T00:20:25.837Z,23.54
2018-07-22T00:21:06.333Z,23.48
2018-07-22T00:21:46.881Z,23.63
2018-07-22T00:22:27.367Z,23.57
2018-07-22T00:23:07.879Z,23.46
2018-07-22T00:23:48.421Z,23.57
2018-07-22T00:24:28.954Z,23.48
2018-07-22T00:25:09.467Z,23.58
2018-07-22T00:25:49.968Z,23.6
2018-07-22T00:26:30.460Z,23.54
2018-07-22T00:27:10.980Z,23.5
2018-07-22T00:27:51.542Z,23.66
2018-07-22T00:28:32.075Z,23.5
2018-07-22T00:29:12.622Z,23.51
2018-07-22T00:29:53.116Z,23.54
2018-07-22T00:30:33.625Z,23.54
2018-07-22T00:31:14.127Z,23.47
2018-07-22T00:31:54.662Z,23.42
2018-07-22T00:32:35.196Z,23.46
2018-07-22T00:33:15.707Z,23.42
2018-07-22T00:33:56.245Z,23.43
2018-07-22T00:34:36.763Z,23.42
2018-07-22T00:35:17.260Z,23.43
2018-07-22T00:35:57.746Z,23.46
2018-07-22T00:36:38.263Z,23.6
2018-07-22T00:37:18.793Z,23.53
2018-07-22T00:37:59.282Z,23.65
2018-07-22T00:38:39.810Z,23.5
2018-07-22T00:39:20.308Z,23.53
2018-07-22T00:40:00.833Z,23.43
2018-07-22T00:40:41.358Z,23.63
2018-07-22T00:41:21.894Z,23.57
2018-07-22T00:42:02.400Z,23.6
2018-07-22T00:42:42.908Z,23.57
2018-07-22T00:43:23.403Z,23.61
2018-07-22T00:44:03.916Z,23.54
2018-07-22T00:44:44.443Z,23.58
2018-07-22T00:45:24.970Z,23.6
2018-07-22T00:46:05.484Z,23.54
2018-07-22T00:46:45.959Z,23.66
2018-07-22T00:47:26.637Z,23.63
2018-07-22T00:48:07.008Z,23.7
2018-07-22T00:48:47.522Z,23.63
2018-07-22T00:49:28.028Z,23.57
2018-07-22T00:50:08.542Z,23.5
2018-07-22T00:50:49.057Z,23.47
2018-07-22T00:51:29.588Z,23.48
2018-07-22T00:52:10.091Z,23.43
2018-07-22T00:52:50.612Z,23.47
2018-07-22T00:53:31.149Z,23.39
2018-07-22T00:54:11.673Z,23.43
2018-07-22T00:54:52.186Z,23.47
2018-07-22T00:55:32.698Z,23.42
2018-07-22T00:56:13.214Z,23.53
2018-07-22T00:56:53.718Z,23.5
2018-07-22T00:57:34.215Z,23.47
2018-07-22T00:58:14.703Z,23.47
2018-07-22T00:58:55.190Z,23.48
2018-07-22T00:59:35.717Z,23.4
2018-07-22T01:00:16.251Z,23.54
2018-07-22T01:00:56.689Z,23.43
2018-07-22T01:01:37.212Z,23.57
2018-07-22T01:02:17.729Z,23.43
2018-07-22T01:02:58.245Z,23.35
2018-07-22T01:03:38.788Z,23.4
2018-07-22T01:04:19.269Z,23.33
2018-07-22T01:04:59.799Z,23.32
2018-07-22T01:05:40.311Z,23.39
2018-07-22T01:06:20.830Z,23.33
2018-07-22T01:07:01.348Z,23.38
2018-07-22T01:07:41.865Z,23.35
2018-07-22T01:08:22.381Z,23.35
2018-07-22T01:09:02.931Z,23.39
2018-07-22T01:09:43.483Z,23.36
2018-07-22T01:10:23.982Z,23.4
2018-07-22T01:11:04.501Z,23.38
2018-07-22T01:11:45.022Z,23.43
2018-07-22T01:12:25.514Z,23.39
2018-07-22T01:13:06.026Z,23.5
2018-07-22T01:13:46.541Z,23.27
2018-07-22T01:14:27.057Z,23.42
2018-07-22T01:15:07.577Z,23.38
2018-07-22T01:15:48.087Z,23.43
2018-07-22T01:16:28.621Z,23.39
2018-07-22T01:17:09.141Z,23.35
2018-07-22T01:17:49.623Z,23.42
2018-07-22T01:18:30.217Z,23.4
2018-07-22T01:19:10.751Z,23.38
2018-07-22T01:19:51.334Z,23.42
2018-07-22T01:20:31.813Z,23.4
2018-07-22T01:21:12.290Z,23.36
2018-07-22T01:21:52.794Z,23.43
2018-07-22T01:22:33.300Z,23.38
2018-07-22T01:23:13.855Z,23.4
2018-07-22T01:23:54.393Z,23.4
2018-07-22T01:24:34.901Z,23.36
2018-07-22T01:25:15.417Z,23.48
2018-07-22T01:25:55.938Z,23.4
2018-07-22T01:26:36.472Z,23.43
2018-07-22T01:27:16.987Z,23.4
2018-07-22T01:27:57.517Z,23.47
2018-07-22T01:28:37.997Z,23.36
2018-07-22T01:29:18.492Z,23.4
2018-07-22T01:29:59.002Z,23.46
2018-07-22T01:30:39.455Z,23.55
2018-07-22T01:31:19.957Z,23.5
2018-07-22T01:32:00.468Z,23.39
2018-07-22T01:32:40.988Z,23.47
2018-07-22T01:33:21.454Z,23.46
2018-07-22T01:34:01.965Z,23.36
2018-07-22T01:34:42.484Z,23.47
2018-07-22T01:35:22.989Z,23.4
2018-07-22T01:36:03.560Z,23.5
2018-07-22T01:36:44.040Z,23.54
2018-07-22T01:37:24.545Z,23.4
2018-07-22T01:38:05.036Z,23.42
2018-07-22T01:38:45.546Z,23.36
2018-07-22T01:39:26.023Z,23.33
2018-07-22T01:40:06.532Z,23.4
2018-07-22T01:40:47.030Z,23.36
2018-07-22T01:41:27.569Z,23.53
2018-07-22T01:42:08.012Z,23.48
2018-07-22T01:42:48.540Z,23.38
2018-07-22T01:43:29.021Z,23.42
2018-07-22T01:44:09.600Z,23.36
2018-07-22T01:44:50.142Z,23.43
2018-07-22T01:45:30.829Z,23.42
2018-07-22T01:46:11.313Z,23.4
2018-07-22T01:46:51.814Z,23.53
2018-07-22T01:47:32.350Z,23.39
2018-07-22T01:48:12.808Z,23.42
2018-07-22T01:48:53.368Z,23.39
2018-07-22T01:49:33.806Z,23.43
2018-07-22T01:50:14.257Z,23.43
2018-07-22T01:50:54.750Z,23.35
2018-07-22T01:51:35.231Z,23.39
2018-07-22T01:52:15.772Z,23.35
2018-07-22T01:52:56.249Z,23.35
2018-07-22T01:53:36.738Z,23.5
2018-07-22T01:54:17.246Z,23.47
2018-07-22T01:54:57.762Z,23.35
2018-07-22T01:55:38.283Z,23.39
2018-07-22T01:56:18.819Z,23.35
2018-07-22T01:56:59.322Z,23.39
2018-07-22T01:57:39.860Z,23.38
2018-07-22T01:58:20.389Z,23.39
2018-07-22T01:59:00.905Z,23.36
2018-07-22T01:59:41.422Z,23.38
2018-07-22T02:00:21.944Z,23.46
2018-07-22T02:01:02.444Z,23.36
2018-07-22T02:01:43.061Z,23.32
2018-07-22T02:02:23.497Z,23.28
2018-07-22T02:03:04.034Z,23.36
2018-07-22T02:03:44.524Z,23.38
2018-07-22T02:04:25.089Z,23.36
2018-07-22T02:05:05.608Z,23.4
2018-07-22T02:05:46.122Z,23.28
2018-07-22T02:06:26.633Z,23.32
2018-07-22T02:07:07.150Z,23.33
2018-07-22T02:07:47.675Z,23.31
2018-07-22T02:08:28.212Z,23.31
2018-07-22T02:09:08.702Z,23.31
2018-07-22T02:09:49.232Z,23.31
2018-07-22T02:10:29.737Z,23.31
2018-07-22T02:11:10.219Z,23.25
2018-07-22T02:11:50.703Z,23.35
2018-07-22T02:12:31.197Z,23.27
2018-07-22T02:13:11.687Z,23.33
2018-07-22T02:13:52.185Z,23.32
2018-07-22T02:14:32.733Z,23.32
2018-07-22T02:15:13.255Z,23.33
2018-07-22T02:15:53.787Z,23.39
2018-07-22T02:16:34.299Z,23.39
2018-07-22T02:17:14.809Z,23.38
2018-07-22T02:17:55.270Z,23.38
2018-07-22T02:18:35.768Z,23.32
2018-07-22T02:19:16.288Z,23.28
2018-07-22T02:19:56.798Z,23.32
2018-07-22T02:20:37.285Z,23.23
2018-07-22T02:21:17.761Z,23.33
2018-07-22T02:21:58.256Z,23.27
2018-07-22T02:22:38.761Z,23.22
2018-07-22T02:23:19.280Z,23.25
2018-07-22T02:23:59.734Z,23.36
2018-07-22T02:24:40.277Z,23.36
2018-07-22T02:25:20.737Z,23.43
2018-07-22T02:26:01.277Z,23.35
2018-07-22T02:26:41.804Z,23.32
2018-07-22T02:27:22.248Z,23.32
2018-07-22T02:28:02.746Z,23.32
2018-07-22T02:28:43.275Z,23.27
2018-07-22T02:29:23.732Z,23.25
2018-07-22T02:30:04.271Z,23.27
2018-07-22T02:30:44.737Z,23.27
2018-07-22T02:31:25.191Z,23.25
2018-07-22T02:32:05.711Z,23.31
2018-07-22T02:32:46.233Z,23.28
2018-07-22T02:33:26.726Z,23.31
2018-07-22T02:34:07.212Z,23.23
2018-07-22T02:34:47.654Z,23.27
2018-07-22T02:35:28.179Z,23.25
2018-07-22T02:36:08.671Z,23.23
2018-07-22T02:36:49.118Z,23.25
2018-07-22T02:37:29.674Z,23.35
2018-07-22T02:38:10.176Z,23.25
2018-07-22T02:38:50.667Z,23.23
2018-07-22T02:39:31.289Z,23.35
2018-07-22T02:40:11.734Z,23.31
2018-07-22T02:40:52.241Z,23.36
2018-07-22T02:41:32.715Z,23.43
2018-07-22T02:42:13.188Z,23.32
2018-07-22T02:42:53.698Z,23.32
2018-07-22T02:43:34.223Z,23.23
2018-07-22T02:44:14.766Z,23.2
2018-07-22T02:44:56.214Z,23.16
2018-07-22T02:45:36.720Z,23.17
2018-07-22T02:46:17.211Z,23.22
2018-07-22T02:46:57.723Z,23.16
2018-07-22T02:47:38.199Z,23.09
2018-07-22T02:48:18.706Z,23.17
2018-07-22T02:48:59.213Z,23.05
2018-07-22T02:49:39.650Z,23.1
2018-07-22T02:50:20.198Z,23.1
2018-07-22T02:51:00.667Z,23.02
2018-07-22T02:51:41.195Z,23.15
2018-07-22T02:52:21.671Z,23.1
2018-07-22T02:53:02.111Z,23.16
2018-07-22T02:53:42.640Z,23.2
2018-07-22T02:54:23.127Z,23.17
2018-07-22T02:55:03.598Z,23.2
2018-07-22T02:56:51.577Z,23.22
2018-07-22T02:57:32.095Z,23.27
2018-07-22T02:58:12.624Z,23.23
2018-07-22T02:58:53.135Z,23.22
2018-07-22T02:59:33.689Z,23.1
2018-07-22T03:00:14.200Z,23.27
2018-07-22T03:00:54.717Z,23.23
2018-07-22T03:01:35.238Z,23.2
2018-07-22T03:02:15.752Z,23.25
2018-07-22T03:02:56.275Z,23.31
2018-07-22T03:03:36.811Z,23.31
2018-07-22T03:04:17.279Z,23.28
2018-07-22T03:04:57.790Z,23.33
2018-07-22T03:05:38.283Z,23.25
2018-07-22T03:06:18.771Z,23.33
2018-07-22T03:06:59.222Z,23.22
2018-07-22T03:07:39.748Z,23.25
2018-07-22T03:08:20.283Z,23.27
2018-07-22T03:09:00.752Z,23.23
2018-07-22T03:09:41.227Z,23.25
2018-07-22T03:10:21.704Z,23.23
2018-07-22T03:11:02.271Z,23.22
2018-07-22T03:11:42.719Z,23.28
2018-07-22T03:12:23.213Z,23.23
2018-07-22T03:13:03.696Z,23.2
2018-07-22T03:13:44.197Z,23.28
2018-07-22T03:14:24.755Z,23.28
2018-07-22T03:15:05.185Z,23.27
2018-07-22T03:15:45.656Z,23.28
2018-07-22T03:16:26.170Z,23.19
2018-07-22T03:17:06.645Z,23.13
2018-07-22T03:17:47.135Z,23.19
2018-07-22T03:18:27.633Z,23.22
2018-07-22T03:19:08.168Z,23.22
2018-07-22T03:19:48.654Z,23.2
2018-07-22T03:20:29.114Z,23.13
2018-07-22T03:21:09.636Z,23.13
2018-07-22T03:21:50.265Z,23.2
2018-07-22T03:22:30.772Z,23.23
2018-07-22T03:23:11.278Z,23.19
2018-07-22T03:23:51.895Z,23.13
2018-07-22T03:24:32.419Z,23.1
2018-07-22T03:25:12.931Z,23.13
2018-07-22T03:25:53.436Z,23.22
2018-07-22T03:26:33.971Z,23.2
2018-07-22T03:27:14.507Z,23.15
2018-07-22T03:27:55.029Z,23.23
2018-07-22T03:28:35.548Z,23.25
2018-07-22T03:29:16.072Z,23.17
2018-07-22T03:29:56.588Z,23.31
2018-07-22T03:30:37.104Z,23.23
2018-07-22T03:31:17.610Z,23.23
2018-07-22T03:31:58.138Z,23.2
2018-07-22T03:32:38.622Z,23.15
2018-07-22T03:33:19.136Z,23.12
2018-07-22T03:33:59.612Z,23.13
2018-07-22T03:34:40.175Z,23.07
2018-07-22T03:35:20.699Z,23.17
2018-07-22T03:36:01.163Z,23.1
2018-07-22T03:36:41.651Z,23.17
2018-07-22T03:37:22.127Z,23.15
2018-07-22T03:38:02.625Z,23.09
2018-07-22T03:38:43.169Z,23.1
2018-07-22T03:39:23.633Z,23.1
2018-07-22T03:40:04.138Z,23.13
2018-07-22T03:40:44.658Z,23.22
2018-07-22T03:41:25.167Z,23.15
2018-07-22T03:42:05.704Z,23.12
2018-07-22T03:42:46.221Z,23.12
2018-07-22T03:43:26.744Z,23.13
2018-07-22T03:44:07.289Z,23.13
2018-07-22T03:44:47.780Z,23.13
2018-07-22T03:45:28.290Z,23.1
2018-07-22T03:46:08.805Z,23.17
2018-07-22T03:46:49.300Z,23.15
2018-07-22T03:47:29.868Z,23.15
2018-07-22T03:48:10.296Z,23.13
2018-07-22T03:48:50.783Z,23.09
2018-07-22T03:49:31.285Z,23.09
2018-07-22T03:50:11.808Z,23.1
2018-07-22T03:50:52.317Z,23.17
2018-07-22T03:51:32.850Z,23.1
2018-07-22T03:52:13.343Z,23.1
2018-07-22T03:52:53.852Z,23.07
2018-07-22T03:53:34.318Z,23.02
2018-07-22T03:54:14.826Z,23.1
2018-07-22T03:54:55.308Z,23.19
2018-07-22T03:55:35.861Z,23.12
2018-07-22T03:56:16.390Z,23.07
2018-07-22T03:56:56.853Z,23.1
2018-07-22T03:57:37.386Z,23.12
2018-07-22T03:58:17.884Z,23.09
2018-07-22T03:58:58.354Z,23.07
2018-07-22T03:59:38.890Z,23.1
2018-07-22T04:00:19.387Z,23.15
2018-07-22T04:00:59.906Z,23.13
2018-07-22T04:01:40.392Z,23.17
2018-07-22T04:02:20.896Z,23.09
2018-07-22T04:03:01.426Z,23.17
2018-07-22T04:03:41.924Z,23.1
2018-07-22T04:04:22.398Z,23.12
2018-07-22T04:05:02.868Z,23.13
2018-07-22T04:05:43.405Z,23.15
2018-07-22T04:06:23.944Z,23.2
2018-07-22T04:07:04.463Z,23.16
2018-07-22T04:07:44.884Z,23.15
2018-07-22T04:08:25.406Z,23.07
2018-07-22T04:09:05.902Z,23.2
2018-07-22T04:09:46.381Z,23.1
2018-07-22T04:10:26.859Z,23.19
2018-07-22T04:11:07.317Z,23.15
2018-07-22T04:11:47.821Z,23.1
2018-07-22T04:12:28.345Z,23.16
2018-07-22T04:13:08.834Z,23.17
2018-07-22T04:13:49.361Z,23.22
2018-07-22T04:14:29.863Z,23.1
2018-07-22T04:15:10.351Z,23.15
2018-07-22T04:15:50.887Z,23.09
2018-07-22T04:16:31.420Z,23.19
2018-07-22T04:17:11.943Z,23.22
2018-07-22T04:17:52.484Z,23.22
2018-07-22T04:18:32.948Z,23.13
2018-07-22T04:19:15.302Z,23.09
2018-07-22T04:19:55.792Z,23.04
2018-07-22T04:20:36.305Z,23.12
2018-07-22T04:21:16.829Z,23.13
2018-07-22T04:21:57.323Z,23.13
2018-07-22T04:22:37.849Z,23.16
2018-07-22T04:23:18.351Z,23.13
2018-07-22T04:23:58.847Z,23.12
2018-07-22T04:24:39.351Z,23.15
2018-07-22T04:25:19.859Z,23.13
2018-07-22T04:26:00.305Z,23.17
2018-07-22T04:26:40.819Z,23.17
2018-07-22T04:27:21.325Z,23.2
2018-07-22T04:28:01.801Z,23.12
2018-07-22T04:28:42.310Z,23.13
2018-07-22T04:29:22.823Z,23.23
2018-07-22T04:30:03.343Z,23.15
2018-07-22T04:30:43.894Z,23.19
2018-07-22T04:31:24.417Z,23.22
2018-07-22T04:32:04.925Z,23.23
2018-07-22T04:32:45.434Z,23.23
2018-07-22T04:33:25.994Z,23.23
2018-07-22T04:34:06.458Z,23.2
2018-07-22T04:34:46.970Z,23.33
2018-07-22T04:35:27.493Z,23.19
2018-07-22T04:36:07.976Z,23.31
2018-07-22T04:36:48.446Z,23.28
2018-07-22T04:37:28.948Z,23.27
2018-07-22T04:38:09.464Z,23.32
2018-07-22T04:38:49.960Z,23.23
2018-07-22T04:39:30.481Z,23.28
2018-07-22T04:40:10.928Z,23.27
2018-07-22T04:40:51.530Z,23.27
2018-07-22T04:41:31.960Z,23.35
2018-07-22T04:42:12.507Z,23.33
2018-07-22T04:42:52.954Z,23.28
2018-07-22T04:43:33.445Z,23.33
2018-07-22T04:44:13.958Z,23.31
2018-07-22T04:44:54.472Z,23.32
2018-07-22T04:45:34.986Z,23.33
2018-07-22T04:46:15.474Z,23.2
2018-07-22T04:46:55.966Z,23.27
2018-07-22T04:47:36.486Z,23.27
2018-07-22T04:48:17.011Z,23.28
2018-07-22T04:48:57.534Z,23.33
2018-07-22T04:49:38.074Z,23.27
2018-07-22T04:50:18.568Z,23.22
2018-07-22T04:50:59.079Z,23.32
2018-07-22T04:51:39.639Z,23.33
2018-07-22T04:52:20.115Z,23.32
2018-07-22T04:53:00.596Z,23.4
2018-07-22T04:53:41.064Z,23.33
2018-07-22T04:54:21.629Z,23.32
2018-07-22T04:55:02.142Z,23.32
2018-07-22T04:55:42.731Z,23.33
2018-07-22T04:56:23.182Z,23.36
2018-07-22T04:57:03.682Z,23.36
2018-07-22T04:57:44.175Z,23.31
2018-07-22T04:58:24.738Z,23.38
2018-07-22T04:59:05.177Z,23.32
2018-07-22T04:59:45.701Z,23.35
2018-07-22T05:00:26.264Z,23.27
2018-07-22T05:01:06.704Z,23.35
2018-07-22T05:01:47.171Z,23.33
2018-07-22T05:02:27.697Z,23.35
2018-07-22T05:03:08.214Z,23.33
2018-07-22T05:03:48.712Z,23.36
2018-07-22T05:04:29.193Z,23.36
2018-07-22T05:05:09.729Z,23.31
2018-07-22T05:05:50.216Z,23.38
2018-07-22T05:06:30.712Z,23.35
2018-07-22T05:07:11.210Z,23.38
2018-07-22T05:07:51.752Z,23.38
2018-07-22T05:08:32.269Z,23.36
2018-07-22T05:09:12.793Z,23.32
2018-07-22T05:09:53.316Z,23.23
2018-07-22T05:10:33.791Z,23.32
2018-07-22T05:11:14.261Z,23.31
2018-07-22T05:11:54.766Z,23.28
2018-07-22T05:12:35.271Z,23.31
2018-07-22T05:13:15.788Z,23.46
2018-07-22T05:13:56.325Z,23.33
2018-07-22T05:14:36.819Z,23.32
2018-07-22T05:15:17.353Z,23.28
2018-07-22T05:15:57.822Z,23.36
2018-07-22T05:16:38.311Z,23.33
2018-07-22T05:17:18.824Z,23.31
2018-07-22T05:17:59.349Z,23.33
2018-07-22T05:18:39.851Z,23.33
2018-07-22T05:19:20.355Z,23.31
2018-07-22T05:20:00.905Z,23.39
2018-07-22T05:20:41.395Z,23.35
2018-07-22T05:21:21.869Z,23.39
2018-07-22T05:22:02.369Z,23.31
2018-07-22T05:22:42.903Z,23.33
2018-07-22T05:23:23.414Z,23.36
2018-07-22T05:24:03.904Z,23.39
2018-07-22T05:24:44.377Z,23.43
2018-07-22T05:25:24.900Z,23.38
2018-07-22T05:26:05.346Z,23.35
2018-07-22T05:26:45.863Z,23.4
2018-07-22T05:27:26.353Z,23.32
2018-07-22T05:28:07.008Z,23.43
2018-07-22T05:28:47.531Z,23.38
2018-07-22T05:29:28.035Z,23.39
2018-07-22T05:30:08.799Z,23.33
2018-07-22T05:30:49.271Z,23.47
2018-07-22T05:31:29.770Z,23.39
2018-07-22T05:32:10.277Z,23.36
2018-07-22T05:32:50.755Z,23.35
2018-07-22T05:33:31.287Z,23.33
2018-07-22T05:34:11.831Z,23.43
2018-07-22T05:34:52.297Z,23.47
2018-07-22T05:35:32.809Z,23.4
2018-07-22T05:36:13.406Z,23.36
2018-07-22T05:36:53.828Z,23.42
2018-07-22T05:37:34.348Z,23.33
2018-07-22T05:38:14.846Z,23.33
2018-07-22T05:38:55.351Z,23.38
2018-07-22T05:39:35.845Z,23.28
2018-07-22T05:40:16.339Z,23.33
2018-07-22T05:40:56.837Z,23.42
2018-07-22T05:41:37.345Z,23.33
2018-07-22T05:42:17.838Z,23.36
2018-07-22T05:42:58.360Z,23.38
2018-07-22T05:43:38.885Z,23.36
2018-07-22T05:44:19.462Z,23.35
2018-07-22T05:44:59.950Z,23.33
2018-07-22T05:45:40.479Z,23.38
2018-07-22T05:46:20.996Z,23.38
2018-07-22T05:47:01.473Z,23.42
2018-07-22T05:47:42.004Z,23.5
2018-07-22T05:48:22.519Z,23.47
2018-07-22T05:49:02.960Z,23.46
2018-07-22T05:49:43.474Z,23.39
2018-07-22T05:50:24.041Z,23.35
2018-07-22T05:51:04.531Z,23.42
2018-07-22T05:51:44.993Z,23.4
2018-07-22T05:52:25.499Z,23.39
2018-07-22T05:53:06.024Z,23.42
2018-07-22T05:53:46.439Z,23.5
2018-07-22T05:54:26.961Z,23.38
2018-07-22T05:55:07.493Z,23.42
2018-07-22T05:55:47.979Z,23.42
2018-07-22T05:56:28.488Z,23.47
2018-07-22T05:57:08.994Z,23.47
2018-07-22T05:57:49.485Z,23.4
2018-07-22T05:58:29.990Z,23.5
2018-07-22T05:59:10.486Z,23.38
2018-07-22T05:59:50.987Z,23.43
2018-07-22T06:00:31.506Z,23.42
2018-07-22T06:01:12.024Z,23.36
2018-07-22T06:01:52.569Z,23.36
2018-07-22T06:02:33.038Z,23.47
2018-07-22T06:03:13.582Z,23.47
2018-07-22T06:03:54.009Z,23.54
2018-07-22T06:04:34.532Z,23.47
2018-07-22T06:05:15.046Z,23.48
2018-07-22T06:05:55.574Z,23.55
2018-07-22T06:06:36.090Z,23.48
2018-07-22T06:07:16.583Z,23.55
2018-07-22T06:07:57.073Z,23.42
2018-07-22T06:08:37.599Z,23.55
2018-07-22T06:09:18.115Z,23.58
2018-07-22T06:09:58.607Z,23.57
2018-07-22T06:10:39.088Z,23.6
2018-07-22T06:11:19.574Z,23.57
2018-07-22T06:12:00.140Z,23.57
2018-07-22T06:12:40.600Z,23.6
2018-07-22T06:13:22.763Z,23.69
2018-07-22T06:14:03.278Z,23.7
2018-07-22T06:14:43.731Z,23.69
2018-07-22T06:15:24.257Z,23.72
2018-07-22T06:16:04.724Z,23.68
2018-07-22T06:16:45.267Z,23.7
2018-07-22T06:17:25.764Z,23.75
2018-07-22T06:18:06.279Z,23.73
2018-07-22T06:18:46.738Z,23.72
2018-07-22T06:19:27.250Z,23.73
2018-07-22T06:20:07.785Z,23.91
2018-07-22T06:20:48.292Z,23.85
2018-07-22T06:21:28.751Z,23.98
2018-07-22T06:22:09.333Z,24.02
2018-07-22T06:22:49.819Z,24
2018-07-22T06:23:30.356Z,24
2018-07-22T06:24:10.791Z,24.15
2018-07-22T06:24:51.293Z,24.16
2018-07-22T06:25:31.804Z,24.15
2018-07-22T06:26:12.362Z,24.27
2018-07-22T06:26:52.867Z,24.18
2018-07-22T06:27:33.376Z,24.28
2018-07-22T06:28:13.876Z,24.16
2018-07-22T06:28:54.372Z,24.28
2018-07-22T06:29:34.900Z,24.35
2018-07-22T06:30:15.405Z,24.3
2018-07-22T06:30:55.916Z,24.39
2018-07-22T06:31:36.393Z,24.4
2018-07-22T06:32:17.521Z,24.53
2018-07-22T06:32:58.053Z,24.47
2018-07-22T06:33:38.562Z,24.5
2018-07-22T06:34:19.063Z,24.52
2018-07-22T06:34:59.618Z,24.67
2018-07-22T06:35:40.097Z,24.78
2018-07-22T06:36:20.622Z,24.8
2018-07-22T06:37:01.091Z,24.78
2018-07-22T06:37:41.619Z,24.87
2018-07-22T06:38:22.208Z,24.87
2018-07-22T06:39:02.728Z,24.91
2018-07-22T06:39:43.371Z,24.93
2018-07-22T06:40:23.922Z,25.06
2018-07-22T06:41:04.400Z,25.1
2018-07-22T06:41:44.876Z,25.18
2018-07-22T06:42:25.379Z,25.39
2018-07-22T06:43:05.945Z,25.33
2018-07-22T06:43:46.441Z,25.33
2018-07-22T06:44:26.922Z,25.35
2018-07-22T06:45:07.405Z,25.38
2018-07-22T06:45:47.989Z,25.55
2018-07-22T06:46:28.526Z,25.46
2018-07-22T06:47:09.101Z,25.62
2018-07-22T06:47:49.574Z,25.64
2018-07-22T06:48:30.049Z,25.67
2018-07-22T06:49:10.559Z,25.76
2018-07-22T06:49:51.013Z,25.91
2018-07-22T06:50:31.528Z,25.94
2018-07-22T06:51:12.038Z,25.87
2018-07-22T06:51:52.492Z,25.9
2018-07-22T06:52:33.129Z,25.77
2018-07-22T06:53:13.519Z,25.79
2018-07-22T06:53:54.032Z,25.88
2018-07-22T06:54:34.511Z,25.85
2018-07-22T06:55:15.004Z,25.9
2018-07-22T06:55:55.481Z,25.95
2018-07-22T06:56:35.980Z,25.97
2018-07-22T06:57:16.537Z,25.94
2018-07-22T06:57:57.009Z,26.09
2018-07-22T06:58:37.463Z,26.09
2018-07-22T06:59:18.005Z,26.33
2018-07-22T06:59:58.493Z,26.51
2018-07-22T07:00:38.948Z,26.58
2018-07-22T07:01:19.459Z,26.67
2018-07-22T07:02:00.003Z,26.58
2018-07-22T07:02:40.447Z,26.69
2018-07-22T07:03:20.987Z,26.87
2018-07-22T07:04:01.528Z,26.88
2018-07-22T07:04:42.020Z,26.82
2018-07-22T07:05:22.519Z,26.66
2018-07-22T07:06:03.023Z,26.85
2018-07-22T07:06:43.550Z,26.72
2018-07-22T07:07:24.024Z,26.57
2018-07-22T07:08:04.554Z,26.7
2018-07-22T07:08:45.072Z,26.72
2018-07-22T07:09:25.842Z,26.67
2018-07-22T07:10:06.385Z,26.7
2018-07-22T07:10:46.879Z,26.82
2018-07-22T07:11:27.365Z,26.87
2018-07-22T07:12:07.853Z,26.8
2018-07-22T07:12:48.386Z,26.95
2018-07-22T07:13:28.861Z,26.82
2018-07-22T07:14:09.358Z,27.02
2018-07-22T07:14:49.863Z,27.04
2018-07-22T07:15:30.322Z,26.89
2018-07-22T07:16:10.876Z,26.81
2018-07-22T07:27:43.823Z,26.7
2018-07-22T07:28:24.376Z,26.75
2018-07-22T07:29:04.894Z,26.88
2018-07-22T07:29:45.413Z,26.77
2018-07-22T07:30:25.946Z,26.84
2018-07-22T07:31:06.558Z,26.97
2018-07-22T07:31:47.021Z,27.02
2018-07-22T07:32:28.511Z,26.95
2018-07-22T07:33:09.037Z,27.03
2018-07-22T07:33:49.828Z,27.06
2018-07-22T07:34:30.366Z,27.04
2018-07-22T07:35:11.293Z,27.1
2018-07-22T07:35:51.346Z,27
2018-07-22T07:36:31.855Z,27.02
2018-07-22T07:37:12.374Z,27.04
2018-07-22T07:37:52.919Z,27.24
2018-07-22T07:38:33.422Z,27.17
2018-07-22T07:39:13.909Z,27.22
2018-07-22T07:39:54.445Z,27.43
2018-07-22T07:40:35.013Z,27.4
2018-07-22T07:41:16.214Z,27.44
2018-07-22T07:41:59.946Z,27.49
2018-07-22T07:42:39.243Z,27.59
2018-07-22T07:43:21.151Z,27.41
2018-07-22T07:44:01.611Z,27.54
2018-07-22T07:44:42.073Z,27.74
2018-07-22T07:45:22.569Z,27.7
2018-07-22T07:46:03.113Z,27.87
2018-07-22T07:46:43.664Z,27.84
2018-07-22T07:47:24.147Z,27.9
2018-07-22T07:48:04.718Z,27.96
2018-07-22T07:48:45.177Z,28.07
2018-07-22T07:49:25.671Z,28.18
2018-07-22T07:50:06.225Z,28.21
2018-07-22T07:50:46.670Z,28.22
2018-07-22T07:51:27.200Z,28.33
2018-07-22T07:52:07.697Z,28.39
2018-07-22T07:52:48.243Z,28.61
2018-07-22T07:53:28.879Z,28.74
2018-07-22T07:54:09.314Z,28.71
2018-07-22T07:54:49.774Z,28.62
2018-07-22T07:55:30.323Z,28.67
2018-07-22T07:56:10.792Z,28.64
2018-07-22T07:56:51.329Z,28.73
2018-07-22T07:57:31.990Z,28.73
2018-07-22T07:58:13.025Z,28.76
2018-07-22T07:58:53.590Z,28.67
2018-07-22T07:59:34.121Z,28.66
2018-07-22T08:00:14.553Z,28.67
2018-07-22T08:00:55.062Z,28.78
2018-07-22T08:01:35.596Z,28.77
2018-07-22T08:02:16.135Z,28.77
2018-07-22T08:02:56.686Z,28.76
2018-07-22T08:03:37.191Z,28.7
2018-07-22T08:04:17.675Z,28.62
2018-07-22T08:04:59.043Z,28.58
2018-07-22T08:05:39.564Z,28.61
2018-07-22T08:06:21.225Z,28.31
2018-07-22T08:07:01.748Z,28.24
2018-07-22T08:07:42.898Z,28.41
2018-07-22T08:08:23.396Z,28.41
2018-07-22T08:09:03.943Z,28.41
2018-07-22T08:09:44.435Z,28.36
2018-07-22T08:10:24.940Z,28.46
2018-07-22T08:11:05.458Z,28.43
2018-07-22T08:11:46.145Z,28.3
2018-07-22T08:12:26.596Z,28.3
2018-07-22T08:13:07.111Z,28.33
2018-07-22T08:13:47.573Z,28.36
2018-07-22T08:16:00.947Z,28.4
2018-07-22T08:16:41.490Z,28.44
2018-07-22T08:17:22.008Z,28.39
2018-07-22T08:18:02.675Z,28.54
2018-07-22T08:18:43.183Z,28.37
2018-07-22T08:19:23.773Z,28.56
2018-07-22T08:20:04.229Z,28.58
2018-07-22T08:20:44.762Z,28.7
2018-07-22T08:21:26.478Z,28.67
2018-07-22T08:22:05.846Z,28.71
2018-07-22T08:22:46.383Z,28.66
2018-07-22T08:23:27.072Z,28.58
2018-07-22T08:24:07.561Z,28.54
2018-07-22T08:24:48.091Z,28.51
2018-07-22T08:25:28.522Z,28.43
2018-07-22T08:26:09.067Z,28.44
2018-07-22T08:26:49.590Z,28.25
2018-07-22T08:27:30.910Z,28.27
2018-07-22T08:28:11.376Z,28.25
2018-07-22T08:28:53.770Z,28.3
2018-07-22T08:29:34.238Z,28.27
2018-07-22T08:30:14.729Z,28.36
2018-07-22T08:30:55.236Z,28.36
2018-07-22T08:32:55.294Z,28.36
2018-07-22T08:34:21.383Z,28.25
2018-07-22T08:35:02.412Z,28.36
2018-07-22T08:35:43.386Z,28.25
2018-07-22T08:36:24.757Z,28.25
2018-07-22T08:37:13.281Z,28.27
2018-07-22T08:37:53.801Z,28.3
2018-07-22T08:38:34.462Z,28.25
2018-07-22T08:39:14.951Z,28.21
2018-07-22T08:40:55.101Z,28.31
2018-07-22T08:41:35.620Z,28.27
2018-07-22T08:42:16.172Z,28.59
2018-07-22T08:42:57.086Z,28.54
2018-07-22T08:43:37.594Z,28.56
2018-07-22T08:44:18.131Z,28.43
2018-07-22T08:44:58.736Z,28.54
2018-07-22T08:45:39.635Z,28.68
2018-07-22T08:46:20.144Z,28.74
2018-07-22T08:47:00.680Z,28.74
2018-07-22T08:47:41.506Z,28.73
2018-07-22T08:48:22.098Z,28.62
2018-07-22T08:49:02.597Z,28.49
2018-07-22T08:49:43.078Z,28.51
2018-07-22T08:50:23.631Z,28.52
2018-07-22T08:51:04.178Z,28.41
2018-07-22T08:51:46.053Z,28.56
2018-07-22T08:52:27.582Z,28.51
2018-07-22T08:53:08.210Z,28.59
2018-07-22T08:53:48.701Z,28.73
2018-07-22T08:54:29.380Z,28.76
2018-07-22T08:55:09.880Z,28.78
2018-07-22T08:55:50.563Z,28.77
2018-07-22T08:56:31.135Z,28.88
2018-07-22T08:57:11.593Z,28.85
2018-07-22T08:57:52.623Z,28.76
2018-07-22T09:02:18.480Z,28.86
2018-07-22T09:02:59.034Z,28.89
2018-07-22T09:03:39.922Z,28.88
2018-07-22T09:04:20.557Z,28.86
2018-07-22T09:05:01.369Z,28.89